Amsterdam, Ohio
Current Conditions -  °F | °C
As of 6:53 PM on Thursday 18 Dec 2014 (Local Time) from KHLG Reporting Station
Overcast Overcast  
Wind Chill: 19°   Ceiling: 1500
Heat Index: 27°   Visibility: 10mi
Dew Point: 21°   Wind: 8mph
Humidity: 78%   Direction: 250°WSW
Pressure: 30.17"   Gusts: NA
Location:  40.47°N, 80.92°W
Report Text: KHLG 182353Z 25007KT 10SM OVC015 M03/M06 A3017 RMK AO2 SLP233 T10281061 11022 21028 53002
Loading
Personal Weather Stations






























Interactive Weather Map New forecast layout! Learn more

10-Day Weather Forecast

Advertisements
Track Severe Weather on mobile